Time;durP1;ratioP1;P1;durP2;ratioP2;P2;SDS_P1;SDS_P2;PMS_P1;PMS_P2;Temp;Humidity;BMP_temperature;BMP_pressure;BME280_temperature;BME280_humidity;BME280_pressure;Samples;Min_cycle;Max_cycle;Signal;HPM_P1;HPM_P2
2023/10/26 00:00:33;;;;;;;28.67;15.80;;;;;;;9.89;100.00;98592.94;1744115;82;28430;-59
2023/10/26 00:03:04;;;;;;;29.95;17.45;;;;;;;9.90;100.00;98595.87;1746892;81;25577;-61
2023/10/26 00:05:30;;;;;;;28.40;16.00;;;;;;;9.92;100.00;98588.20;1761183;81;30126;-61
2023/10/26 00:07:59;;;;;;;27.98;16.60;;;;;;;9.91;100.00;98590.13;1729196;83;25963;-61
2023/10/26 00:10:26;;;;;;;32.30;16.10;;;;;;;9.90;100.00;98591.24;1761293;81;25598;-61
2023/10/26 00:12:54;;;;;;;36.75;17.90;;;;;;;9.90;100.00;98588.54;1729223;83;27974;-61
2023/10/26 00:15:23;;;;;;;34.97;18.83;;;;;;;9.93;100.00;98594.38;1761263;81;25812;-59
2023/10/26 00:17:53;;;;;;;38.17;18.75;;;;;;;9.94;100.00;98594.61;1729386;83;25448;-60
2023/10/26 00:20:23;;;;;;;40.75;20.82;;;;;;;9.94;100.00;98583.23;1761098;81;26289;-60
2023/10/26 00:22:52;;;;;;;40.95;21.12;;;;;;;9.93;100.00;98580.33;1729275;83;25481;-58
2023/10/26 00:25:21;;;;;;;42.93;21.02;;;;;;;9.93;100.00;98580.88;1761162;81;27244;-61
2023/10/26 00:27:52;;;;;;;48.80;21.20;;;;;;;9.94;100.00;98573.00;1729240;83;25667;-61
2023/10/26 00:30:21;;;;;;;41.05;20.85;;;;;;;9.94;100.00;98564.33;1761125;81;25194;-61
2023/10/26 00:32:51;;;;;;;44.45;21.68;;;;;;;9.96;100.00;98561.28;1729461;83;32352;-61
2023/10/26 00:35:20;;;;;;;49.08;22.00;;;;;;;9.98;100.00;98564.45;1761219;81;29075;-61
2023/10/26 00:37:49;;;;;;;38.35;20.88;;;;;;;9.99;100.00;98560.02;1729397;83;27341;-61
2023/10/26 00:40:18;;;;;;;45.75;23.00;;;;;;;9.98;100.00;98561.17;1761102;81;25679;-62
2023/10/26 00:42:48;;;;;;;41.30;21.60;;;;;;;10.00;100.00;98561.60;1729381;83;25562;-60
2023/10/26 00:45:14;;;;;;;46.83;23.47;;;;;;;10.01;100.00;98559.13;1735545;81;25587;-61
2023/10/26 00:47:43;;;;;;;54.30;24.15;;;;;;;10.01;100.00;98555.08;1729271;83;25574;-61
2023/10/26 00:50:13;;;;;;;52.95;23.67;;;;;;;9.99;100.00;98546.52;1761187;81;33068;-60
2023/10/26 00:52:42;;;;;;;49.33;23.38;;;;;;;10.00;100.00;98544.62;1704512;83;25580;-61
2023/10/26 00:55:12;;;;;;;50.70;24.30;;;;;;;10.00;100.00;98540.56;1761173;81;34656;-61
2023/10/26 00:57:42;;;;;;;44.10;23.00;;;;;;;10.01;100.00;98542.12;1704318;83;25505;-62
2023/10/26 01:00:13;;;;;;;49.73;23.55;;;;;;;10.01;100.00;98538.06;1759743;81;25727;-60
2023/10/26 01:02:42;;;;;;;47.70;23.50;;;;;;;10.00;100.00;98538.64;1729149;83;28046;-61
2023/10/26 01:05:09;;;;;;;49.23;23.95;;;;;;;10.01;100.00;98529.42;1745377;81;25602;-62
2023/10/26 01:07:36;;;;;;;46.37;24.25;;;;;;;10.01;100.00;98528.06;1743899;82;25551;-61
2023/10/26 01:10:07;;;;;;;50.38;24.87;;;;;;;10.01;100.00;98524.56;1744010;82;25867;-61
2023/10/26 01:12:36;;;;;;;46.68;22.82;;;;;;;10.03;100.00;98523.67;1744002;81;25637;-61
2023/10/26 01:15:07;;;;;;;54.93;24.70;;;;;;;10.03;100.00;98523.67;1744086;81;27402;-61
2023/10/26 01:17:40;;;;;;;43.35;21.37;;;;;;;10.01;100.00;98519.16;1743910;81;25404;-60
2023/10/26 01:20:12;;;;;;;49.55;23.80;;;;;;;10.01;100.00;98517.27;1743938;82;25613;-61
2023/10/26 01:22:42;;;;;;;50.03;25.52;;;;;;;10.02;100.00;98523.44;1743980;81;25622;-60
2023/10/26 01:25:11;;;;;;;60.03;25.35;;;;;;;10.02;100.00;98527.48;1744186;82;25621;-60
2023/10/26 01:27:39;;;;;;;50.33;23.45;;;;;;;10.02;100.00;98524.22;1744202;81;26859;-60
2023/10/26 01:30:10;;;;;;;49.90;24.57;;;;;;;10.02;100.00;98521.52;1743986;82;25595;-58
2023/10/26 01:32:40;;;;;;;52.08;23.42;;;;;;;10.02;100.00;98523.44;1744249;81;25597;-59
2023/10/26 01:35:09;;;;;;;;;;;;;;;10.01;100.00;98519.97;1746768;82;25581;-62
2023/10/26 01:37:39;;;;;;;51.13;23.47;;;;;;;10.00;100.00;98522.44;1744373;81;25461;-60
2023/10/26 01:40:10;;;;;;;49.18;23.80;;;;;;;10.00;100.00;98529.19;1744869;82;27438;-62
2023/10/26 01:42:39;;;;;;;51.25;24.50;;;;;;;10.01;100.00;98529.96;1744554;82;25613;-62
2023/10/26 01:45:10;;;;;;;49.10;23.40;;;;;;;10.00;100.00;98530.54;1744696;81;25521;-61
2023/10/26 01:47:39;;;;;;;47.55;24.47;;;;;;;10.00;100.00;98530.54;1723158;82;25714;-61
2023/10/26 01:50:09;;;;;;;48.65;24.75;;;;;;;10.02;100.00;98530.19;1744264;82;25572;-61
2023/10/26 01:52:36;;;;;;;47.00;24.05;;;;;;;10.03;100.00;98525.02;1744113;82;27324;-61
2023/10/26 01:55:06;;;;;;;54.70;25.40;;;;;;;10.04;100.00;98524.64;1744010;82;25413;-60
2023/10/26 01:57:35;;;;;;;52.90;25.70;;;;;;;10.04;100.00;98526.00;1744144;82;25449;-61
2023/10/26 02:00:06;;;;;;;55.48;25.88;;;;;;;10.05;100.00;98524.09;1744216;82;26082;-61
2023/10/26 02:02:33;;;;;;;52.58;24.15;;;;;;;10.05;100.00;98529.50;1744150;82;25383;-62
2023/10/26 02:05:04;;;;;;;51.75;24.95;;;;;;;10.06;100.00;98520.25;1743952;81;27369;-60
2023/10/26 02:07:31;;;;;;;53.28;25.23;;;;;;;10.07;100.00;98521.25;1743988;82;25571;-60
2023/10/26 02:10:00;;;;;;;54.95;25.85;;;;;;;10.07;100.00;98519.12;1744069;82;25642;-60
2023/10/26 02:12:29;;;;;;;55.73;25.77;;;;;;;10.08;100.00;98507.20;1744172;82;25582;-60
2023/10/26 02:14:56;;;;;;;57.90;26.30;;;;;;;10.07;100.00;98504.27;1744233;81;25405;-58
2023/10/26 02:17:22;;;;;;;56.75;26.60;;;;;;;10.06;100.00;98503.49;1744053;82;27910;-61
2023/10/26 02:19:49;;;;;;;58.75;27.75;;;;;;;10.08;100.00;98509.91;1743944;82;25366;-61
2023/10/26 02:22:17;;;;;;;55.38;25.55;;;;;;;10.09;100.00;98506.83;1744056;82;25570;-61
2023/10/26 02:24:49;;;;;;;55.45;26.33;;;;;;;10.08;100.00;98506.63;1744142;82;26777;-61
2023/10/26 02:27:18;;;;;;;56.08;27.37;;;;;;;10.09;100.00;98507.41;1744135;81;25475;-59
2023/10/26 02:29:47;;;;;;;50.08;24.80;;;;;;;10.09;100.00;98506.05;1744181;82;27292;-61
2023/10/26 02:32:16;;;;;;;62.03;26.40;;;;;;;10.08;100.00;98507.20;1744047;82;25390;-61
2023/10/26 02:34:42;;;;;;;56.48;25.37;;;;;;;10.10;100.00;98509.75;1744158;82;25438;-61
2023/10/26 02:37:09;;;;;;;55.60;26.82;;;;;;;10.08;100.00;98499.87;1743982;81;26192;-61
2023/10/26 02:39:40;;;;;;;53.30;25.35;;;;;;;10.09;100.00;98500.07;1744137;82;25444;-60
2023/10/26 02:42:10;;;;;;;58.80;25.97;;;;;;;10.09;100.00;98501.42;1744123;82;28368;-61
2023/10/26 02:44:38;;;;;;;52.20;24.63;;;;;;;10.09;100.00;98504.70;1744059;82;34599;-60
2023/10/26 02:47:07;;;;;;;50.55;24.67;;;;;;;10.06;100.00;98502.14;1743991;82;25386;-61
2023/10/26 02:49:35;;;;;;;53.92;25.68;;;;;;;10.05;100.00;98493.81;1744135;82;33721;-60
2023/10/26 02:52:05;;;;;;;50.87;25.00;;;;;;;10.05;100.00;98493.81;1744273;81;25601;-60
2023/10/26 02:54:32;;;;;;;50.90;25.88;;;;;;;10.04;100.00;98492.80;1744037;82;27306;-61
2023/10/26 02:57:02;;;;;;;51.28;24.43;;;;;;;10.02;100.00;98489.67;1744014;82;25573;-61
2023/10/26 02:59:28;;;;;;;;;;;;;;;10.00;100.00;98491.95;1746632;82;25440;-61
2023/10/26 03:01:56;;;;;;;51.13;24.52;;;;;;;9.97;100.00;98483.19;1743969;82;25674;-60
2023/10/26 03:04:23;;;;;;;49.77;25.70;;;;;;;9.94;100.00;98478.48;1749337;81;25550;-60
2023/10/26 03:06:49;;;;;;;46.80;24.55;;;;;;;9.93;100.00;98486.34;1729246;83;27340;-59
2023/10/26 03:09:17;;;;;;;47.15;23.85;;;;;;;9.87;100.00;98495.28;1761018;81;25467;-59
2023/10/26 03:11:47;;;;;;;51.67;25.70;;;;;;;9.86;100.00;98495.09;1729633;83;25569;-59
2023/10/26 03:14:18;;;;;;;49.75;24.72;;;;;;;9.83;100.00;98494.42;1761213;81;26414;-60
2023/10/26 03:16:47;;;;;;;48.25;25.70;;;;;;;9.80;100.00;98496.46;1729337;83;25634;-60
2023/10/26 03:19:15;;;;;;;51.70;25.72;;;;;;;9.78;100.00;98495.45;1761245;81;26843;-59
2023/10/26 03:21:44;;;;;;;48.00;24.92;;;;;;;9.76;100.00;98493.67;1729140;83;25394;-60
2023/10/26 03:24:11;;;;;;;44.53;24.70;;;;;;;9.73;100.00;98489.73;1761331;81;25457;-61
2023/10/26 03:26:37;;;;;;;46.68;24.75;;;;;;;9.71;100.00;98484.48;1729157;83;26069;-60
2023/10/26 03:29:07;;;;;;;44.35;24.37;;;;;;;9.67;100.00;98484.39;1761246;81;25446;-59
2023/10/26 03:31:36;;;;;;;44.27;24.65;;;;;;;9.65;100.00;98486.66;1729264;83;27945;-59
2023/10/26 03:34:03;;;;;;;47.45;24.43;;;;;;;9.63;100.00;98483.50;1760981;81;25563;-60
2023/10/26 03:36:32;;;;;;;45.40;24.77;;;;;;;9.62;100.00;98483.84;1729242;83;25491;-59
2023/10/26 03:39:01;;;;;;;47.95;25.52;;;;;;;9.62;100.00;98481.95;1761162;81;25517;-60
2023/10/26 03:41:30;;;;;;;;;;;;;;;9.61;100.00;98479.02;1731854;83;25651;-60
2023/10/26 03:43:57;;;;;;;48.08;24.15;;;;;;;9.61;100.00;98480.95;1761230;81;28264;-60
2023/10/26 03:46:26;;;;;;;48.65;25.88;;;;;;;9.59;100.00;98487.26;1729108;83;25664;-57
2023/10/26 03:48:53;;;;;;;46.50;25.27;;;;;;;9.57;100.00;98482.20;1761212;81;25609;-60
2023/10/26 03:51:21;;;;;;;46.20;24.72;;;;;;;9.57;100.00;98472.76;1729272;83;25640;-59
2023/10/26 03:53:50;;;;;;;46.20;25.68;;;;;;;9.57;100.00;98467.91;1761235;81;25438;-60
2023/10/26 03:56:19;;;;;;;47.23;26.57;;;;;;;9.57;100.00;98465.20;1729504;83;28311;-60
2023/10/26 03:58:46;;;;;;;45.67;25.45;;;;;;;9.55;100.00;98465.55;1761139;81;25621;-60
2023/10/26 04:01:13;;;;;;;42.50;23.65;;;;;;;9.51;100.00;98461.98;1704385;83;25585;-60
2023/10/26 04:03:42;;;;;;;58.13;26.45;;;;;;;9.49;100.00;98453.45;1761163;81;26525;-59
2023/10/26 04:06:08;;;;;;;46.25;25.48;;;;;;;9.48;100.00;98445.94;1714130;83;25398;-60
2023/10/26 04:08:37;;;;;;;58.35;25.57;;;;;;;9.47;100.00;98443.00;1743936;82;28010;-60
2023/10/26 04:11:05;;;;;;;44.83;24.55;;;;;;;9.46;100.00;98445.47;1743891;82;25995;-61
2023/10/26 04:13:32;;;;;;;49.03;23.87;;;;;;;9.44;100.00;98439.64;1736836;82;25588;-59
2023/10/26 04:16:01;;;;;;;43.08;24.32;;;;;;;9.44;100.00;98437.52;1727112;83;26359;-61
2023/10/26 04:18:29;;;;;;;;;;;;;;;9.43;100.00;98435.39;1746558;82;25626;-60
2023/10/26 04:20:58;;;;;;;43.38;24.25;;;;;;;9.40;100.00;98427.98;1736824;82;27383;-63
2023/10/26 04:23:26;;;;;;;40.48;23.45;;;;;;;9.37;100.00;98425.97;1727184;83;25622;-63
2023/10/26 04:25:55;;;;;;;47.45;25.12;;;;;;;9.36;100.00;98419.00;1743929;82;25464;-64
2023/10/26 04:28:24;;;;;;;49.83;24.80;;;;;;;9.35;100.00;98413.40;1743846;82;25968;-63
2023/10/26 04:30:53;;;;;;;42.53;25.10;;;;;;;9.32;100.00;98413.52;1736983;82;25587;-64
2023/10/26 04:33:21;;;;;;;42.58;24.37;;;;;;;9.31;100.00;98416.55;1727205;83;27378;-62
2023/10/26 04:35:51;;;;;;;54.50;23.73;;;;;;;9.30;100.00;98415.00;1743978;81;33561;-63
2023/10/26 04:38:21;;;;;;;66.30;26.05;;;;;;;9.28;100.00;98405.09;1743917;81;25640;-63
2023/10/26 04:40:49;;;;;;;42.48;24.02;;;;;;;9.24;100.00;98405.02;1744004;82;26611;-63
2023/10/26 04:43:18;;;;;;;39.73;23.27;;;;;;;9.24;100.00;98408.28;1736862;82;25549;-63
2023/10/26 04:45:47;;;;;;;48.98;24.65;;;;;;;9.26;100.00;98406.82;1727252;83;27997;-63
2023/10/26 04:48:14;;;;;;;42.27;24.37;;;;;;;9.27;100.00;98403.55;1743929;82;25618;-62
2023/10/26 04:50:43;;;;;;;51.50;24.90;;;;;;;9.26;100.00;98396.03;1743910;82;25696;-63
2023/10/26 04:53:11;;;;;;;42.53;23.55;;;;;;;9.27;100.00;98400.28;1744093;82;26412;-64
2023/10/26 04:55:38;;;;;;;47.70;23.47;;;;;;;9.27;100.00;98398.92;1736788;82;25570;-63
2023/10/26 04:58:04;;;;;;;41.70;22.22;;;;;;;9.28;100.00;98399.70;1727110;83;27299;-62
2023/10/26 05:00:33;;;;;;;43.13;22.93;;;;;;;9.27;100.00;98403.55;1743877;82;25471;-63
2023/10/26 05:02:59;;;;;;;45.60;23.32;;;;;;;9.27;100.00;98400.84;1722752;82;25469;-63
2023/10/26 05:05:30;;;;;;;40.90;23.00;;;;;;;9.25;100.00;98405.23;1743725;82;26328;-62
2023/10/26 05:07:59;;;;;;;49.58;22.85;;;;;;;9.25;100.00;98405.81;1744070;82;25693;-62
2023/10/26 05:10:25;;;;;;;43.80;23.50;;;;;;;9.25;100.00;98407.94;1736834;82;28169;-62
2023/10/26 05:12:52;;;;;;;40.67;22.62;;;;;;;9.23;100.00;98407.50;1726672;83;25632;-62
2023/10/26 05:15:21;;;;;;;49.05;24.57;;;;;;;9.23;100.00;98408.05;1743181;82;25454;-62
2023/10/26 05:17:50;;;;;;;42.98;24.20;;;;;;;9.23;100.00;98409.40;1743980;82;26214;-62
2023/10/26 05:20:21;;;;;;;54.20;23.85;;;;;;;9.22;100.00;98403.80;1736801;82;25544;-62
2023/10/26 05:22:47;;;;;;;56.90;22.45;;;;;;;9.22;100.00;98402.45;1727134;83;28023;-64
2023/10/26 05:25:14;;;;;;;53.48;24.32;;;;;;;9.20;100.00;98400.09;1743830;82;25543;-61
2023/10/26 05:27:43;;;;;;;37.75;22.98;;;;;;;9.18;100.00;98400.20;1743842;82;25373;-61
2023/10/26 05:30:12;;;;;;;38.80;22.70;;;;;;;9.16;100.00;98400.01;1736879;82;26702;-61
2023/10/26 05:32:39;;;;;;;52.55;21.15;;;;;;;9.13;100.00;98399.34;1727275;83;25702;-62
2023/10/26 05:35:08;;;;;;;49.90;23.42;;;;;;;9.12;100.00;98397.77;1743874;82;28084;-62
2023/10/26 05:37:37;;;;;;;44.03;21.90;;;;;;;9.13;100.00;98404.73;1743950;82;26038;-62
2023/10/26 05:40:08;;;;;;;40.30;22.35;;;;;;;9.12;100.00;98398.34;1744004;82;25420;-62
2023/10/26 05:42:36;;;;;;;35.50;22.30;;;;;;;9.10;100.00;98395.98;1743942;82;26328;-61
2023/10/26 05:45:29;;;;;;;39.63;22.00;;;;;;;9.14;100.00;98397.42;1743928;81;25401;-61
2023/10/26 05:47:58;;;;;;;36.58;22.17;;;;;;;9.15;100.00;98397.66;1620634;88;27563;-62
2023/10/26 05:50:28;;;;;;;35.25;22.55;;;;;;;9.18;100.00;98401.56;1620697;88;29597;-61
2023/10/26 05:52:57;;;;;;;41.10;23.60;;;;;;;9.19;100.00;98399.09;1592458;90;25592;-62
2023/10/26 05:55:23;;;;;;;42.45;24.82;;;;;;;9.19;100.00;98399.87;1611188;89;25956;-62
2023/10/26 05:57:54;;;;;;;46.48;23.77;;;;;;;9.21;100.00;98411.12;1595061;90;25768;-61
2023/10/26 06:00:20;;;;;;;36.68;22.95;;;;;;;9.21;100.00;98408.42;1593782;90;27379;-61
2023/10/26 06:02:51;;;;;;;39.25;22.60;;;;;;;9.19;100.00;98409.31;1592363;90;26047;-62
2023/10/26 06:05:20;;;;;;;37.73;22.55;;;;;;;9.18;100.00;98409.65;1592308;90;25620;-62
2023/10/26 06:07:47;;;;;;;35.78;22.45;;;;;;;9.18;100.00;98407.76;1592375;90;25744;-62
2023/10/26 06:10:16;;;;;;;34.67;22.22;;;;;;;9.19;100.00;98406.61;1592325;90;25489;-62
2023/10/26 06:12:45;;;;;;;37.03;22.93;;;;;;;9.20;100.00;98406.06;1592463;90;28203;-62
2023/10/26 06:15:11;;;;;;;36.13;22.95;;;;;;;9.21;100.00;98411.12;1592344;90;26042;-63
2023/10/26 06:17:41;;;;;;;40.20;25.17;;;;;;;9.22;100.00;98406.50;1592496;90;33028;-62
2023/10/26 06:20:16;;;;;;;37.40;23.70;;;;;;;9.24;100.00;98405.02;1592624;90;26733;-62
2023/10/26 06:22:45;;;;;;;38.78;24.02;;;;;;;9.28;100.00;98407.80;1590817;90;25355;-63
2023/10/26 06:25:14;;;;;;;41.30;25.45;;;;;;;9.29;100.00;98415.55;1629532;86;28389;-63
2023/10/26 06:27:40;;;;;;;44.25;25.80;;;;;;;9.29;100.00;98404.76;1657717;86;25743;-61
2023/10/26 06:30:11;;;;;;;42.62;26.00;;;;;;;9.32;100.00;98404.64;1657330;86;25469;-62
2023/10/26 06:32:38;;;;;;;39.98;25.23;;;;;;;9.34;100.00;98407.20;1657243;86;25626;-63
2023/10/26 06:35:08;;;;;;;44.27;25.72;;;;;;;9.34;100.00;98398.33;1657238;85;25744;-62
2023/10/26 06:37:37;;;;;;;42.90;26.45;;;;;;;9.33;100.00;98400.25;1657223;86;28215;-63
2023/10/26 06:40:07;;;;;;;43.60;27.55;;;;;;;9.35;100.00;98395.28;1657276;86;25463;-64
2023/10/26 06:42:34;;;;;;;43.20;27.17;;;;;;;9.35;100.00;98395.28;1657285;86;25469;-63
2023/10/26 06:45:00;;;;;;;42.15;26.62;;;;;;;9.39;100.00;98394.02;1657214;85;25617;-62
2023/10/26 06:47:27;;;;;;;40.65;25.90;;;;;;;9.34;100.00;98388.89;1690456;83;25440;-63
2023/10/26 06:49:57;;;;;;;41.80;25.92;;;;;;;9.36;100.00;98392.02;1699622;83;27688;-60
2023/10/26 06:52:25;;;;;;;40.35;26.90;;;;;;;9.37;100.00;98384.16;1699620;84;25554;-62
2023/10/26 06:54:52;;;;;;;44.10;28.35;;;;;;;9.41;100.00;98385.02;1699733;83;25562;-62
2023/10/26 06:57:21;;;;;;;42.80;27.85;;;;;;;9.46;100.00;98375.88;1699644;84;25988;-62
2023/10/26 06:59:50;;;;;;;;;;;;;;;9.50;100.00;98382.95;1702187;84;25461;-62
2023/10/26 07:02:19;;;;;;;43.65;27.35;;;;;;;9.56;100.00;98379.41;1699758;84;28150;-62
2023/10/26 07:04:46;;;;;;;44.00;27.48;;;;;;;9.58;100.00;98382.54;1699791;84;33337;-63
2023/10/26 07:07:14;;;;;;;40.35;27.20;;;;;;;9.61;100.00;98369.70;1683200;85;25617;-64
2023/10/26 07:09:41;;;;;;;42.80;28.23;;;;;;;9.67;100.00;98359.41;1683223;85;25612;-64
2023/10/26 07:12:12;;;;;;;43.42;28.55;;;;;;;9.73;100.00;98363.42;1683181;85;25637;-62
2023/10/26 07:14:41;;;;;;;41.92;28.10;;;;;;;9.82;100.00;98363.23;1683304;85;28279;-62
2023/10/26 07:17:11;;;;;;;47.83;29.90;;;;;;;9.87;100.00;98358.91;1683215;85;26025;-62
2023/10/26 07:19:40;;;;;;;40.28;28.30;;;;;;;9.92;100.00;98358.64;1683260;85;25431;-62
2023/10/26 07:22:06;;;;;;;39.98;25.90;;;;;;;9.94;100.00;98356.95;1683207;85;25638;-61
2023/10/26 07:24:37;;;;;;;44.93;26.65;;;;;;;9.98;100.00;98355.90;1683250;85;25610;-62
2023/10/26 07:27:06;;;;;;;40.20;26.45;;;;;;;10.02;100.00;98360.80;1683308;85;27432;-60
2023/10/26 07:29:34;;;;;;;40.30;26.57;;;;;;;10.07;100.00;98369.20;1683178;85;33818;-61
2023/10/26 07:32:03;;;;;;;36.25;24.77;;;;;;;10.07;100.00;98370.56;1683084;85;25594;-61
2023/10/26 07:34:31;;;;;;;33.25;24.02;;;;;;;10.07;100.00;98374.03;1673477;85;32522;-62
2023/10/26 07:36:58;;;;;;;35.83;24.80;;;;;;;10.07;100.00;98368.63;1673820;85;25584;-62
2023/10/26 07:39:28;;;;;;;31.57;22.58;;;;;;;10.09;100.00;98369.63;1674055;85;27700;-62
2023/10/26 07:41:58;;;;;;;34.10;24.70;;;;;;;10.14;100.00;98365.88;1651576;85;26004;-61
2023/10/26 07:44:28;;;;;;;36.40;24.10;;;;;;;10.15;100.00;98360.13;1673714;85;25623;-61
2023/10/26 07:46:58;;;;;;;33.23;22.87;;;;;;;10.19;100.00;98358.85;1674626;85;26531;-63
2023/10/26 07:49:27;;;;;;;30.95;22.17;;;;;;;10.16;100.00;98353.57;1705590;84;25645;-62
2023/10/26 07:51:57;;;;;;;31.57;22.55;;;;;;;10.17;100.00;98355.16;1676139;85;27936;-61
2023/10/26 07:54:23;;;;;;;31.52;23.38;;;;;;;10.22;100.00;98347.34;1705658;84;25567;-63
2023/10/26 07:56:52;;;;;;;32.88;22.95;;;;;;;10.26;100.00;98348.19;1674512;85;25414;-62
2023/10/26 07:59:22;;;;;;;33.88;23.57;;;;;;;10.28;100.00;98345.36;1705977;84;26201;-62
2023/10/26 08:01:51;;;;;;;32.60;22.22;;;;;;;10.32;100.00;98341.41;1705788;84;26006;-63
2023/10/26 08:04:18;;;;;;;30.62;21.95;;;;;;;10.38;100.00;98336.50;1674710;85;28146;-65
2023/10/26 08:06:48;;;;;;;31.12;22.07;;;;;;;10.45;100.00;98329.33;1705822;84;25542;-63
2023/10/26 08:09:16;;;;;;;33.70;21.33;;;;;;;10.48;100.00;98329.75;1705681;84;28828;-62
2023/10/26 08:11:43;;;;;;;30.43;21.55;;;;;;;10.50;100.00;98330.17;1674511;85;26560;-62
2023/10/26 08:14:11;;;;;;;29.75;21.80;;;;;;;10.54;100.00;98333.72;1705945;84;25527;-62
2023/10/26 08:16:39;;;;;;;31.42;22.07;;;;;;;10.54;100.00;98333.17;1705704;84;27338;-62
2023/10/26 08:19:09;;;;;;;28.77;20.40;;;;;;;10.56;100.00;98336.87;1676007;85;25627;-62
2023/10/26 08:21:38;;;;;;;27.98;20.30;;;;;;;10.59;100.00;98334.78;1705762;84;25505;-64
2023/10/26 08:24:09;;;;;;;32.38;21.35;;;;;;;10.60;100.00;98335.78;1674610;85;29978;-61
2023/10/26 08:26:35;;;;;;;29.02;21.10;;;;;;;10.62;100.00;98346.24;1705923;83;25569;-62
2023/10/26 08:29:02;;;;;;;29.10;20.32;;;;;;;10.65;100.00;98337.42;1705643;84;27363;-63
2023/10/26 08:31:36;;;;;;;28.05;20.45;;;;;;;10.69;100.00;98342.31;1674422;85;25430;-63
2023/10/26 08:34:02;;;;;;;28.30;20.32;;;;;;;10.73;100.00;98345.89;1705870;84;25543;-63
2023/10/26 08:36:31;;;;;;;34.75;21.17;;;;;;;10.80;100.00;98337.13;1676060;85;25742;-63
2023/10/26 08:39:02;;;;;;;29.40;19.82;;;;;;;10.88;100.00;98335.33;1676050;85;25419;-62
2023/10/26 08:41:35;;;;;;;26.55;18.87;;;;;;;10.90;100.00;98337.13;1705991;84;27917;-62
2023/10/26 08:44:05;;;;;;;26.45;19.20;;;;;;;10.91;100.00;98333.27;1675907;85;25676;-61
2023/10/26 08:46:34;;;;;;;28.38;19.52;;;;;;;10.89;100.00;98328.79;1704173;82;25592;-63
2023/10/26 08:49:04;;;;;;;29.65;19.80;;;;;;;10.87;100.00;98321.61;1694097;84;26307;-61
2023/10/26 08:51:35;;;;;;;23.90;17.73;;;;;;;10.87;100.00;98325.67;1694071;84;25493;-62
2023/10/26 08:54:02;;;;;;;31.17;19.25;;;;;;;10.90;100.00;98318.97;1694155;84;28242;-63
2023/10/26 08:56:33;;;;;;;25.72;18.82;;;;;;;10.90;100.00;98313.56;1694041;84;25707;-62
2023/10/26 08:59:03;;;;;;;27.42;18.75;;;;;;;10.92;100.00;98292.34;1694007;84;25485;-62
2023/10/26 09:01:33;;;;;;;27.22;18.23;;;;;;;10.93;100.00;98289.86;1694067;84;25615;-63
2023/10/26 09:04:09;;;;;;;27.62;19.65;;;;;;;10.96;100.00;98292.39;1694155;84;33459;-62
2023/10/26 09:06:48;;;;;;;27.58;19.10;;;;;;;10.97;100.00;98289.91;1693429;83;27708;-61
2023/10/26 09:09:18;;;;;;;30.50;19.82;;;;;;;10.97;100.00;98286.63;1693910;84;25718;-63
2023/10/26 09:11:48;;;;;;;29.45;20.30;;;;;;;10.97;100.00;98286.63;1694125;84;25474;-63
2023/10/26 09:14:20;;;;;;;27.25;20.12;;;;;;;10.98;100.00;98274.67;1693976;84;25657;-62
2023/10/26 09:16:49;;;;;;;26.42;18.55;;;;;;;10.97;100.00;98271.75;1694083;84;25616;-63
2023/10/26 09:19:19;;;;;;;25.65;18.45;;;;;;;10.99;100.00;98275.45;1694038;84;27447;-62
2023/10/26 09:21:58;;;;;;;;;;;;;;;11.01;100.00;98272.58;1696462;84;25735;-63
2023/10/26 09:24:29;;;;;;;;;;;;;;;11.06;100.00;98275.56;1696560;84;25522;-65
2023/10/26 09:27:01;;;;;;;26.35;17.40;;;;;;;11.12;100.00;98278.77;1693979;84;25727;-65
2023/10/26 09:29:44;;;;;;;25.23;18.25;;;;;;;11.14;100.00;98282.66;1694011;84;25430;-64
2023/10/26 09:32:12;;;;;;;27.70;19.02;;;;;;;11.18;100.00;98275.95;1694029;84;27351;-63
2023/10/26 09:34:44;;;;;;;26.62;19.17;;;;;;;11.21;100.00;98276.59;1694157;84;25551;-64
2023/10/26 09:37:13;;;;;;;24.57;18.45;;;;;;;11.22;100.00;98276.81;1694039;84;25577;-63
2023/10/26 09:39:41;;;;;;;26.97;18.12;;;;;;;11.23;100.00;98272.94;1693917;84;26673;-63
2023/10/26 09:42:10;;;;;;;24.07;17.70;;;;;;;11.21;100.00;98265.19;1694025;84;25658;-63
2023/10/26 09:44:38;;;;;;;25.97;18.32;;;;;;;11.20;100.00;98264.19;1694001;84;26904;-62
2023/10/26 09:47:08;;;;;;;24.15;17.42;;;;;;;11.18;100.00;98268.61;1695754;84;25464;-63
2023/10/26 09:49:38;;;;;;;26.17;18.62;;;;;;;11.16;100.00;98267.42;1704809;84;25466;-62
2023/10/26 09:52:07;;;;;;;25.10;17.27;;;;;;;11.14;100.00;98265.66;1704888;84;26164;-63
2023/10/26 09:54:40;;;;;;;25.85;18.98;;;;;;;11.13;100.00;98275.67;1705160;84;25669;-61
2023/10/26 09:57:24;;;;;;;24.07;18.25;;;;;;;11.13;100.00;98273.55;1705040;84;27336;-61
2023/10/26 09:59:55;;;;;;;27.25;18.35;;;;;;;11.11;100.00;98275.84;1704706;84;25776;-62
2023/10/26 10:02:25;;;;;;;27.17;18.37;;;;;;;11.09;100.00;98277.55;1690085;82;25616;-62
2023/10/26 10:04:54;;;;;;;26.05;18.02;;;;;;;11.05;100.00;98265.91;1735427;82;26185;-61
2023/10/26 10:07:44;;;;;;;25.52;18.27;;;;;;;11.03;100.00;98260.05;1706097;84;25469;-60
2023/10/26 10:10:15;;;;;;;31.48;21.12;;;;;;;11.03;100.00;98246.52;1735150;82;27735;-59
2023/10/26 10:12:42;;;;;;;34.20;24.23;;;;;;;11.05;100.00;98241.55;1735359;82;34690;-61
2023/10/26 10:15:13;;;;;;;31.95;22.45;;;;;;;11.04;100.00;98252.16;1735161;82;25640;-60
2023/10/26 10:17:50;;;;;;;28.77;20.02;;;;;;;11.04;100.00;98237.27;1735333;82;26264;-60
2023/10/26 10:20:22;;;;;;;28.02;21.07;;;;;;;11.03;100.00;98230.29;1706067;84;25586;-59
2023/10/26 10:22:54;;;;;;;33.18;22.17;;;;;;;11.04;100.00;98225.09;1705962;84;27677;-59
2023/10/26 10:25:25;;;;;;;31.65;20.60;;;;;;;11.03;100.00;98223.53;1735004;82;26020;-60
2023/10/26 10:28:00;;;;;;;29.30;19.92;;;;;;;11.03;100.00;98215.41;1710520;82;25597;-61
2023/10/26 10:30:34;;;;;;;26.87;19.02;;;;;;;11.04;100.00;98210.22;1705933;84;26296;-61
2023/10/26 10:33:04;;;;;;;28.38;20.25;;;;;;;11.05;100.00;98204.23;1703438;83;25603;-62
2023/10/26 10:35:43;;;;;;;28.47;21.33;;;;;;;11.03;100.00;98201.89;1735236;82;28124;-61
2023/10/26 10:38:20;;;;;;;30.90;20.17;;;;;;;11.02;100.00;98200.34;1735394;82;26019;-61
2023/10/26 10:41:02;;;;;;;29.50;20.75;;;;;;;11.08;100.00;98196.17;1735213;82;25417;-62
2023/10/26 10:43:38;;;;;;;53.00;38.08;;;;;;;11.14;100.00;98202.84;1706019;84;25534;-64
2023/10/26 10:46:21;;;;;;;37.88;26.17;;;;;;;11.19;100.00;98193.64;1735541;82;25468;-61
2023/10/26 10:49:05;;;;;;;33.18;22.37;;;;;;;11.32;100.00;98199.06;1735355;81;27692;-64
2023/10/26 10:51:39;;;;;;;38.48;25.00;;;;;;;11.51;100.00;98194.66;1735389;82;25545;-63
2023/10/26 10:54:13;;;;;;;42.17;31.87;;;;;;;11.55;100.00;98205.75;1735843;82;25576;-61
2023/10/26 10:56:43;;;;;;;31.85;20.95;;;;;;;11.58;100.00;98200.96;1736777;82;25621;-60
2023/10/26 10:59:22;;;;;;;36.48;21.40;;;;;;;11.59;100.00;98197.67;1736694;82;25175;-60
2023/10/26 11:02:08;;;;;;;29.85;20.25;;;;;;;11.58;100.00;98192.06;1735694;82;27678;-60
2023/10/26 11:04:58;;;;;;;25.23;18.75;;;;;;;11.65;100.00;98195.44;1705869;84;25597;-62
2023/10/26 11:07:31;;;;;;;;;;;;;;;11.63;100.00;98197.16;1737631;82;25512;-62
2023/10/26 11:10:02;;;;;;;23.10;17.45;;;;;;;11.66;100.00;98192.92;1705841;84;25977;-62
2023/10/26 11:12:32;;;;;;;24.65;17.70;;;;;;;11.67;100.00;98185.02;1735087;82;25582;-62
2023/10/26 11:15:01;;;;;;;23.85;18.32;;;;;;;11.70;100.00;98180.23;1735449;82;27320;-62
2023/10/26 11:17:30;;;;;;;30.88;19.80;;;;;;;11.70;100.00;98181.58;1735307;82;25742;-63
2023/10/26 11:19:59;;;;;;;25.92;18.27;;;;;;;11.80;100.00;98188.26;1735163;82;25566;-62
2023/10/26 11:22:27;;;;;;;28.77;19.50;;;;;;;11.73;100.00;98181.63;1735395;82;26503;-63
2023/10/26 11:24:57;;;;;;;24.50;18.02;;;;;;;11.74;100.00;98178.33;1735084;82;25462;-63